createdAt,value
2023-01-31T00:05:24.078Z,2.90
2023-01-31T00:33:26.544Z,2.90
2023-01-31T00:40:14.380Z,2.80
2023-01-31T01:03:23.500Z,2.50
2023-01-31T01:14:22.517Z,2.40
2023-01-31T01:18:23.348Z,2.40
2023-01-31T01:25:16.023Z,2.40
2023-01-31T01:42:51.244Z,3.40
2023-01-31T01:49:44.007Z,2.30
2023-01-31T01:56:38.028Z,2.10
2023-01-31T03:35:39.124Z,2.20
2023-01-31T03:42:48.094Z,2.10
2023-01-31T03:59:29.700Z,2.10
2023-01-31T04:03:23.995Z,4.20
2023-01-31T04:10:18.619Z,2.10
2023-01-31T04:35:15.973Z,2.00
2023-01-31T04:42:05.669Z,1.90
2023-01-31T05:05:43.319Z,1.80
2023-01-31T05:12:33.059Z,1.70
2023-01-31T05:19:25.717Z,1.60
2023-01-31T05:26:07.220Z,1.70
2023-01-31T05:32:54.032Z,1.80
2023-01-31T05:39:40.739Z,1.80
2023-01-31T05:46:23.206Z,1.80
2023-01-31T05:53:11.213Z,1.80
2023-01-31T06:00:03.039Z,1.80
2023-01-31T07:32:08.789Z,1.40
2023-01-31T07:35:57.790Z,3.30
2023-01-31T07:42:44.974Z,1.20
2023-01-31T07:49:34.102Z,1.20
2023-01-31T07:56:16.769Z,1.30
2023-01-31T08:17:08.355Z,1.80
2023-01-31T08:28:06.877Z,2.00
2023-01-31T08:48:55.670Z,2.60
2023-01-31T08:52:24.503Z,5.90
2023-01-31T08:59:13.730Z,2.00
2023-01-31T09:06:01.205Z,2.60
2023-01-31T09:12:48.719Z,3.10
2023-01-31T09:19:51.265Z,3.20
2023-01-31T09:26:59.373Z,3.20
2023-01-31T09:33:46.857Z,3.20
2023-01-31T09:40:36.483Z,3.30
2023-01-31T10:09:23.022Z,4.00
2023-01-31T10:16:14.422Z,4.20
2023-01-31T10:23:09.821Z,4.50
2023-01-31T10:30:02.185Z,4.60
2023-01-31T10:36:54.967Z,4.60
2023-01-31T10:43:48.952Z,4.70
2023-01-31T10:51:10.056Z,4.60
2023-01-31T11:07:42.606Z,4.60
2023-01-31T11:14:30.227Z,4.60
2023-01-31T11:21:11.006Z,4.70
2023-01-31T11:28:03.007Z,4.90
2023-01-31T11:35:03.853Z,5.00
2023-01-31T11:42:49.158Z,5.10
2023-01-31T11:53:52.820Z,5.20
2023-01-31T12:00:57.187Z,5.30
2023-01-31T12:04:27.359Z,6.50
2023-01-31T12:11:30.311Z,5.60
2023-01-31T12:18:23.937Z,5.50
2023-01-31T12:35:00.491Z,5.60
2023-01-31T12:47:10.669Z,5.40
2023-01-31T12:55:17.631Z,5.60
2023-01-31T12:59:16.345Z,5.50
2023-01-31T13:02:20.376Z,5.70
2023-01-31T13:09:15.419Z,5.30
2023-01-31T13:12:28.686Z,8.10
2023-01-31T13:23:35.225Z,5.30
2023-01-31T13:30:32.137Z,5.20
2023-01-31T13:38:18.995Z,5.30
2023-01-31T13:53:56.439Z,4.00
2023-01-31T14:00:45.399Z,4.20
2023-01-31T14:07:35.003Z,5.00
2023-01-31T14:10:44.243Z,6.00
2023-01-31T14:14:19.637Z,6.90
2023-01-31T14:22:17.743Z,4.90
2023-01-31T14:29:58.750Z,4.80
2023-01-31T14:33:28.102Z,4.80
2023-01-31T14:45:41.848Z,4.80
2023-01-31T14:49:25.501Z,4.80
2023-01-31T14:52:54.959Z,4.80
2023-01-31T15:03:56.447Z,4.70
2023-01-31T15:15:13.269Z,7.00
2023-01-31T15:21:58.099Z,2.50
2023-01-31T15:28:46.817Z,4.70
2023-01-31T15:35:46.387Z,4.80
2023-01-31T15:52:20.687Z,4.60
2023-01-31T15:59:15.855Z,4.60
2023-01-31T16:05:58.991Z,4.50
2023-01-31T16:12:51.877Z,4.40
2023-01-31T16:19:39.237Z,4.40
2023-01-31T16:26:28.688Z,2.60
2023-01-31T16:33:27.866Z,4.30
2023-01-31T16:40:32.075Z,4.30
2023-01-31T17:08:20.253Z,4.30
2023-01-31T17:11:42.578Z,4.30
2023-01-31T17:19:36.583Z,4.30
2023-01-31T17:23:10.008Z,6.00
2023-01-31T17:30:10.892Z,3.10
2023-01-31T17:36:52.013Z,4.30
2023-01-31T17:43:46.429Z,4.30
2023-01-31T17:50:37.766Z,4.30
2023-01-31T18:45:04.276Z,4.30
2023-01-31T18:51:58.979Z,4.40
2023-01-31T18:59:06.055Z,4.30
2023-01-31T19:06:54.189Z,4.70
2023-01-31T19:17:45.429Z,4.40
2023-01-31T19:46:51.256Z,3.50
2023-01-31T19:53:41.659Z,4.30
2023-01-31T20:07:52.423Z,4.60
2023-01-31T20:24:37.367Z,4.60
2023-01-31T20:59:23.488Z,4.30
2023-01-31T21:11:52.021Z,3.20
2023-01-31T21:19:01.057Z,4.20
2023-01-31T22:15:30.648Z,4.20
2023-01-31T22:19:20.299Z,6.20
2023-01-31T22:26:10.088Z,4.30
2023-01-31T22:33:07.435Z,4.20
2023-01-31T22:40:04.451Z,4.20
2023-01-31T22:46:53.801Z,4.20
2023-01-31T22:53:54.616Z,4.20
2023-01-31T23:00:50.112Z,4.30
2023-01-31T23:07:52.506Z,4.30
2023-01-31T23:10:31.147Z,4.20
2023-01-31T23:27:20.295Z,4.30
2023-01-31T23:34:09.493Z,4.30
2023-01-31T23:41:08.552Z,4.30
